createdAt,value
2023-01-29T00:02:22.187Z,101039.78
2023-01-29T00:04:49.175Z,101043.41
2023-01-29T00:07:17.068Z,101038.34
2023-01-29T00:09:44.082Z,101040.59
2023-01-29T00:12:11.138Z,101039.78
2023-01-29T00:14:38.966Z,101048.00
2023-01-29T00:17:06.048Z,101049.34
2023-01-29T00:19:34.540Z,101051.59
2023-01-29T00:22:02.382Z,101052.00
2023-01-29T00:24:29.335Z,101063.88
2023-01-29T00:26:56.350Z,101049.88
2023-01-29T00:29:23.998Z,101053.84
2023-01-29T00:31:50.965Z,101049.34
2023-01-29T00:34:19.068Z,101058.75
2023-01-29T00:36:47.780Z,101055.19
2023-01-29T00:39:14.721Z,101063.16
2023-01-29T00:42:00.907Z,101061.91
2023-01-29T00:44:47.458Z,101064.41
2023-01-29T00:47:33.992Z,101064.75
2023-01-29T00:50:06.548Z,101068.84
2023-01-29T00:52:36.434Z,101062.38
2023-01-29T00:55:06.222Z,101068.84
2023-01-29T00:57:35.477Z,101063.22
2023-01-29T01:00:03.970Z,101069.59
2023-01-29T01:02:50.362Z,101061.34
2023-01-29T01:05:19.068Z,101060.81
2023-01-29T01:07:51.672Z,101061.25
2023-01-29T01:10:22.132Z,101069.16
2023-01-29T01:12:56.538Z,101064.22
2023-01-29T01:15:27.477Z,101071.59
2023-01-29T01:17:56.418Z,101075.41
2023-01-29T01:20:25.711Z,101072.38
2023-01-29T01:22:54.705Z,101069.00
2023-01-29T01:25:24.875Z,101078.84
2023-01-29T01:27:57.106Z,101077.06
2023-01-29T01:30:25.453Z,101068.22
2023-01-29T01:32:53.397Z,101076.00
2023-01-29T01:35:21.375Z,101068.72
2023-01-29T01:37:49.359Z,101065.84
2023-01-29T01:40:19.325Z,101064.72
2023-01-29T01:42:52.818Z,101070.22
2023-01-29T01:45:30.852Z,101070.59
2023-01-29T01:48:22.279Z,101072.41
2023-01-29T01:51:03.418Z,101084.41
2023-01-29T01:53:42.774Z,101089.56
2023-01-29T01:56:17.068Z,101081.75
2023-01-29T01:58:59.008Z,101078.38
2023-01-29T02:01:30.635Z,101083.38
2023-01-29T02:04:23.204Z,101082.69
2023-01-29T02:07:12.945Z,101085.34
2023-01-29T02:09:51.673Z,101089.72
2023-01-29T02:12:20.415Z,101092.03
2023-01-29T02:14:48.850Z,101083.69
2023-01-29T02:17:19.148Z,101080.88
2023-01-29T02:20:26.660Z,101084.00
2023-01-29T02:22:56.342Z,101086.41
2023-01-29T02:25:47.268Z,101085.66
2023-01-29T02:28:24.511Z,101087.34
2023-01-29T02:31:13.263Z,101090.72
2023-01-29T02:33:54.134Z,101101.06
2023-01-29T02:36:47.260Z,101106.53
2023-01-29T02:39:29.361Z,101105.16
2023-01-29T02:42:23.638Z,101112.06
2023-01-29T02:45:03.672Z,101118.97
2023-01-29T02:47:44.827Z,101120.81
2023-01-29T02:50:40.924Z,101125.06
2023-01-29T02:53:20.611Z,101134.22
2023-01-29T02:55:55.287Z,101133.59
2023-01-29T02:58:38.405Z,101131.84
2023-01-29T03:01:18.461Z,101139.72
2023-01-29T03:03:52.734Z,101147.44
2023-01-29T03:06:32.749Z,101138.34
2023-01-29T03:09:04.590Z,101145.56
2023-01-29T03:11:39.902Z,101145.28
2023-01-29T03:14:13.324Z,101150.22
2023-01-29T03:16:49.871Z,101142.16
2023-01-29T03:19:23.789Z,101144.75
2023-01-29T03:22:02.224Z,101142.34
2023-01-29T03:24:58.636Z,101142.59
2023-01-29T03:27:50.307Z,101138.44
2023-01-29T03:30:39.004Z,101145.63
2023-01-29T03:33:09.747Z,101145.72
2023-01-29T03:35:42.824Z,101141.97
2023-01-29T03:38:11.776Z,101140.06
2023-01-29T03:40:50.915Z,101147.88
2023-01-29T03:43:45.415Z,101145.38
2023-01-29T03:46:56.924Z,101155.72
2023-01-29T03:49:50.334Z,101145.56
2023-01-29T03:52:44.309Z,101149.19
2023-01-29T03:55:40.339Z,101144.84
2023-01-29T03:58:37.555Z,101146.25
2023-01-29T04:01:21.360Z,101138.78
2023-01-29T04:04:17.185Z,101141.94
2023-01-29T04:06:48.024Z,101146.34
2023-01-29T04:09:25.213Z,101140.31
2023-01-29T04:12:04.093Z,101135.84
2023-01-29T04:14:32.071Z,101147.59
2023-01-29T04:17:07.466Z,101149.53
2023-01-29T04:19:35.806Z,101141.41
2023-01-29T04:22:14.254Z,101151.03
2023-01-29T04:24:42.921Z,101145.91
2023-01-29T04:27:15.465Z,101149.78
2023-01-29T04:29:55.321Z,101147.50
2023-01-29T04:32:55.171Z,101150.44
2023-01-29T04:35:27.467Z,101151.03
2023-01-29T04:37:58.087Z,101151.47
2023-01-29T04:41:11.534Z,101148.41
2023-01-29T04:44:05.534Z,101153.13
2023-01-29T04:46:56.665Z,101153.09
2023-01-29T04:49:26.022Z,101157.59
2023-01-29T04:52:09.846Z,101160.84
2023-01-29T04:54:52.408Z,101161.66
2023-01-29T04:57:30.117Z,101162.56
2023-01-29T05:00:06.583Z,101161.41
2023-01-29T05:02:41.097Z,101153.97
2023-01-29T05:05:10.350Z,101156.69
2023-01-29T05:07:40.815Z,101161.47
2023-01-29T05:10:10.204Z,101166.25
2023-01-29T05:12:47.219Z,101174.63
2023-01-29T05:15:20.374Z,101177.78
2023-01-29T05:17:49.195Z,101180.47
2023-01-29T05:20:17.741Z,101179.75
2023-01-29T05:22:46.134Z,101178.19
2023-01-29T05:25:25.663Z,101188.34
2023-01-29T05:28:12.108Z,101192.34
2023-01-29T05:30:40.853Z,101188.88
2023-01-29T05:33:22.349Z,101188.47
2023-01-29T05:35:51.151Z,101190.56
2023-01-29T05:38:19.788Z,101199.97
2023-01-29T05:40:48.641Z,101195.50
2023-01-29T05:43:22.392Z,101199.09
2023-01-29T05:45:59.354Z,101200.84
2023-01-29T05:48:30.930Z,101206.75
2023-01-29T05:51:03.206Z,101205.16
2023-01-29T05:53:32.303Z,101206.97
2023-01-29T05:56:03.911Z,101206.75
2023-01-29T05:58:32.283Z,101209.41
2023-01-29T06:01:07.775Z,101201.09
2023-01-29T06:03:34.967Z,101216.81
2023-01-29T06:06:04.791Z,101218.06
2023-01-29T06:08:34.306Z,101216.88
2023-01-29T06:11:01.283Z,101225.94
2023-01-29T06:13:28.410Z,101221.88
2023-01-29T06:15:58.091Z,101219.44
2023-01-29T06:18:25.929Z,101216.75
2023-01-29T06:20:53.562Z,101224.44
2023-01-29T06:23:21.960Z,101223.00
2023-01-29T06:25:48.843Z,101227.00
2023-01-29T06:28:16.629Z,101231.59
2023-01-29T06:30:43.615Z,101237.44
2023-01-29T06:33:12.901Z,101246.94
2023-01-29T06:35:40.697Z,101247.38
2023-01-29T06:38:09.886Z,101236.19
2023-01-29T06:40:39.141Z,101248.75
2023-01-29T06:43:06.155Z,101245.06
2023-01-29T06:45:33.973Z,101249.53
2023-01-29T06:48:01.809Z,101249.13
2023-01-29T06:50:28.860Z,101255.34
2023-01-29T06:52:56.327Z,101259.66
2023-01-29T06:55:24.860Z,101249.69
2023-01-29T06:57:53.656Z,101243.34
2023-01-29T07:00:21.450Z,101250.41
2023-01-29T07:02:51.559Z,101246.91
2023-01-29T07:05:21.084Z,101243.00
2023-01-29T07:07:48.760Z,101250.56
2023-01-29T07:10:17.131Z,101248.88
2023-01-29T07:12:45.227Z,101254.91
2023-01-29T07:15:13.063Z,101256.19
2023-01-29T07:17:41.075Z,101258.06
2023-01-29T07:20:09.536Z,101256.84
2023-01-29T07:22:37.426Z,101259.31
2023-01-29T07:25:04.732Z,101266.38
2023-01-29T07:27:32.647Z,101264.78
2023-01-29T07:30:01.040Z,101272.69
2023-01-29T07:32:29.252Z,101273.44
2023-01-29T07:34:58.856Z,101267.28
2023-01-29T07:37:27.187Z,101271.31
2023-01-29T07:39:54.217Z,101269.81
2023-01-29T07:42:21.194Z,101268.22
2023-01-29T07:44:51.220Z,101271.78
2023-01-29T07:47:18.508Z,101267.19
2023-01-29T07:49:46.375Z,101283.91
2023-01-29T07:52:13.410Z,101274.78
2023-01-29T07:54:41.173Z,101270.72
2023-01-29T07:57:12.352Z,101269.09
2023-01-29T07:59:40.190Z,101262.03
2023-01-29T08:02:10.096Z,101256.34
2023-01-29T08:04:37.856Z,101265.22
2023-01-29T08:07:09.498Z,101258.47
2023-01-29T08:09:37.420Z,101262.22
2023-01-29T08:12:05.262Z,101281.03
2023-01-29T08:14:33.299Z,101276.50
2023-01-29T08:17:00.363Z,101278.69
2023-01-29T08:19:28.308Z,101280.53
2023-01-29T08:21:59.163Z,101286.50
2023-01-29T08:24:41.516Z,101280.28
2023-01-29T08:27:17.403Z,101285.25
2023-01-29T08:29:45.309Z,101281.34
2023-01-29T08:32:12.448Z,101280.00
2023-01-29T08:34:39.487Z,101281.94
2023-01-29T08:37:08.071Z,101281.75
2023-01-29T08:39:35.926Z,101280.06
2023-01-29T08:42:05.910Z,101280.75
2023-01-29T08:44:33.750Z,101286.94
2023-01-29T08:47:04.283Z,101286.66
2023-01-29T08:49:35.735Z,101293.19
2023-01-29T08:52:04.753Z,101305.09
2023-01-29T08:54:32.947Z,101305.28
2023-01-29T08:57:00.216Z,101297.78
2023-01-29T08:59:28.567Z,101296.06
2023-01-29T09:01:57.241Z,101296.97
2023-01-29T09:04:25.751Z,101295.47
2023-01-29T09:06:52.884Z,101304.03
2023-01-29T09:09:20.873Z,101287.91
2023-01-29T09:11:48.679Z,101292.28
2023-01-29T09:14:18.739Z,101292.03
2023-01-29T09:16:47.252Z,101294.47
2023-01-29T09:19:15.975Z,101291.34
2023-01-29T09:21:44.158Z,101274.13
2023-01-29T09:24:12.249Z,101272.28
2023-01-29T09:26:41.833Z,101277.16
2023-01-29T09:29:11.234Z,101270.81
2023-01-29T09:31:39.235Z,101268.06
2023-01-29T09:34:07.820Z,101261.78
2023-01-29T09:36:36.628Z,101272.28
2023-01-29T09:39:06.961Z,101266.03
2023-01-29T09:42:04.324Z,101269.94
2023-01-29T09:45:01.564Z,101277.56
2023-01-29T09:47:35.316Z,101280.53
2023-01-29T09:50:20.884Z,101287.22
2023-01-29T09:53:11.349Z,101287.09
2023-01-29T09:56:02.689Z,101289.75
2023-01-29T09:58:39.109Z,101284.88
2023-01-29T10:01:19.211Z,101290.38
2023-01-29T10:03:59.290Z,101288.56
2023-01-29T10:06:48.598Z,101290.38
2023-01-29T10:10:00.495Z,101286.38
2023-01-29T10:12:49.938Z,101284.34
2023-01-29T10:15:36.195Z,101279.97
2023-01-29T10:18:20.038Z,101270.38
2023-01-29T10:21:05.584Z,101273.44
2023-01-29T10:23:57.967Z,101267.66
2023-01-29T10:26:32.206Z,101273.72
2023-01-29T10:29:06.321Z,101274.56
2023-01-29T10:31:42.817Z,101266.19
2023-01-29T10:34:46.027Z,101271.34
2023-01-29T10:37:39.924Z,101265.72
2023-01-29T10:40:19.350Z,101269.91
2023-01-29T10:43:04.361Z,101268.16
2023-01-29T10:46:02.104Z,101269.22
2023-01-29T10:48:30.085Z,101272.06
2023-01-29T10:51:07.557Z,101265.47
2023-01-29T10:53:43.965Z,101264.69
2023-01-29T10:56:39.538Z,101258.94
2023-01-29T10:59:39.397Z,101260.78
2023-01-29T11:02:18.651Z,101257.00
2023-01-29T11:04:48.147Z,101257.44
2023-01-29T11:07:19.711Z,101255.28
2023-01-29T11:09:55.652Z,101258.16
2023-01-29T11:12:30.832Z,101255.34
2023-01-29T11:15:08.730Z,101254.63
2023-01-29T11:17:37.064Z,101258.47
2023-01-29T11:20:25.749Z,101264.06
2023-01-29T11:22:56.449Z,101262.91
2023-01-29T11:25:25.123Z,101270.03
2023-01-29T11:28:02.885Z,101267.97
2023-01-29T11:30:41.591Z,101261.69
2023-01-29T11:33:08.816Z,101257.16
2023-01-29T11:35:37.326Z,101266.72
2023-01-29T11:38:26.665Z,101252.47
2023-01-29T11:41:22.467Z,101261.13
2023-01-29T11:43:50.411Z,101248.47
2023-01-29T11:46:21.553Z,101249.38
2023-01-29T11:48:59.003Z,101253.69
2023-01-29T11:51:42.233Z,101240.28
2023-01-29T11:54:19.087Z,101239.44
2023-01-29T11:56:52.361Z,101242.88
2023-01-29T11:59:32.047Z,101238.44
2023-01-29T12:02:32.263Z,101241.19
2023-01-29T12:05:18.792Z,101231.69
2023-01-29T12:07:51.029Z,101231.09
2023-01-29T12:10:42.122Z,101230.91
2023-01-29T12:13:10.088Z,101226.31
2023-01-29T12:15:39.862Z,101232.78
2023-01-29T12:18:31.217Z,101223.47
2023-01-29T12:21:05.595Z,101216.09
2023-01-29T12:24:00.699Z,101206.19
2023-01-29T12:26:39.896Z,101219.72
2023-01-29T12:29:21.222Z,101208.28
2023-01-29T12:32:26.236Z,101206.59
2023-01-29T12:35:15.080Z,101196.44
2023-01-29T12:38:03.953Z,101212.47
2023-01-29T12:40:46.787Z,101196.75
2023-01-29T12:43:17.314Z,101200.59
2023-01-29T12:45:51.129Z,101196.44
2023-01-29T12:48:37.846Z,101200.41
2023-01-29T12:51:14.716Z,101203.16
2023-01-29T12:53:57.817Z,101199.94
2023-01-29T12:56:43.403Z,101203.31
2023-01-29T12:59:31.033Z,101203.81
2023-01-29T13:02:12.698Z,101203.06
2023-01-29T13:04:56.755Z,101208.91
2023-01-29T13:07:32.331Z,101206.47
2023-01-29T13:10:12.371Z,101206.00
2023-01-29T13:12:44.757Z,101197.94
2023-01-29T13:15:30.489Z,101208.63
2023-01-29T13:18:18.983Z,101197.38
2023-01-29T13:20:50.962Z,101189.34
2023-01-29T13:23:35.867Z,101204.38
2023-01-29T13:26:06.682Z,101210.72
2023-01-29T13:28:35.395Z,101196.03
2023-01-29T13:31:38.320Z,101196.50
2023-01-29T13:34:17.191Z,101190.91
2023-01-29T13:36:51.568Z,101194.13
2023-01-29T13:39:25.239Z,101189.47
2023-01-29T13:41:54.477Z,101185.25
2023-01-29T13:44:33.519Z,101183.66
2023-01-29T13:47:06.982Z,101194.28
2023-01-29T13:49:53.343Z,101194.09
2023-01-29T13:52:45.676Z,101188.44
2023-01-29T13:55:24.196Z,101190.13
2023-01-29T13:57:56.909Z,101191.81
2023-01-29T14:00:34.644Z,101196.44
2023-01-29T14:03:04.779Z,101192.44
2023-01-29T14:05:44.123Z,101197.69
2023-01-29T14:08:15.279Z,101198.03
2023-01-29T14:10:43.926Z,101198.41
2023-01-29T14:13:19.605Z,101200.84
2023-01-29T14:15:59.653Z,101198.09
2023-01-29T14:18:29.867Z,101193.88
2023-01-29T14:20:59.578Z,101200.84
2023-01-29T14:23:44.292Z,101197.81
2023-01-29T14:26:38.765Z,101207.78
2023-01-29T14:29:14.524Z,101198.63
2023-01-29T14:31:58.442Z,101196.41
2023-01-29T14:34:46.084Z,101199.19
2023-01-29T14:37:16.746Z,101190.88
2023-01-29T14:39:48.490Z,101197.78
2023-01-29T14:42:27.713Z,101191.69
2023-01-29T14:44:54.773Z,101192.81
2023-01-29T14:47:43.705Z,101187.94
2023-01-29T14:50:29.265Z,101183.25
2023-01-29T14:53:23.250Z,101192.94
2023-01-29T14:55:54.615Z,101183.72
2023-01-29T14:58:37.805Z,101181.03
2023-01-29T15:01:19.038Z,101178.56
2023-01-29T15:03:51.087Z,101181.88
2023-01-29T15:06:27.678Z,101178.66
2023-01-29T15:09:10.232Z,101167.66
2023-01-29T15:11:49.517Z,101177.56
2023-01-29T15:14:19.177Z,101177.38
2023-01-29T15:17:05.182Z,101181.78
2023-01-29T15:19:45.316Z,101180.09
2023-01-29T15:22:18.477Z,101184.75
2023-01-29T15:25:04.215Z,101181.59
2023-01-29T15:27:34.903Z,101171.66
2023-01-29T15:30:08.184Z,101171.09
2023-01-29T15:32:40.443Z,101181.13
2023-01-29T15:35:28.136Z,101178.63
2023-01-29T15:38:00.752Z,101174.19
2023-01-29T15:40:29.499Z,101188.59
2023-01-29T15:42:57.677Z,101184.81
2023-01-29T15:45:33.494Z,101181.66
2023-01-29T15:48:08.623Z,101185.84
2023-01-29T15:50:41.506Z,101191.16
2023-01-29T15:53:21.475Z,101184.88
2023-01-29T15:55:52.058Z,101180.66
2023-01-29T15:58:27.269Z,101170.75
2023-01-29T16:00:59.962Z,101185.09
2023-01-29T16:03:32.742Z,101189.28
2023-01-29T16:06:02.890Z,101193.72
2023-01-29T16:08:30.885Z,101196.88
2023-01-29T16:11:01.851Z,101198.16
2023-01-29T16:13:33.021Z,101195.44
2023-01-29T16:16:04.628Z,101203.13
2023-01-29T16:18:40.974Z,101201.34
2023-01-29T16:21:27.098Z,101196.72
2023-01-29T16:24:22.600Z,101207.25
2023-01-29T16:26:59.247Z,101206.84
2023-01-29T16:29:36.007Z,101205.19
2023-01-29T16:32:05.450Z,101209.13
2023-01-29T16:34:39.942Z,101206.56
2023-01-29T16:37:26.566Z,101211.53
2023-01-29T16:39:54.417Z,101220.59
2023-01-29T16:42:24.517Z,101222.66
2023-01-29T16:44:54.301Z,101223.03
2023-01-29T16:47:31.428Z,101231.50
2023-01-29T16:50:43.344Z,101229.22
2023-01-29T16:53:24.632Z,101234.78
2023-01-29T16:55:52.987Z,101239.50
2023-01-29T16:58:28.324Z,101230.50
2023-01-29T17:01:10.376Z,101223.88
2023-01-29T17:03:40.890Z,101214.97
2023-01-29T17:06:13.223Z,101227.88
2023-01-29T17:08:44.495Z,101219.50
2023-01-29T17:11:23.249Z,101222.16
2023-01-29T17:13:50.543Z,101219.91
2023-01-29T17:16:26.777Z,101224.63
2023-01-29T17:18:56.410Z,101224.13
2023-01-29T17:21:25.986Z,101212.97
2023-01-29T17:23:53.081Z,101219.50
2023-01-29T17:26:21.418Z,101219.22
2023-01-29T17:28:51.407Z,101222.06
2023-01-29T17:31:18.643Z,101225.44
2023-01-29T17:33:46.003Z,101224.34
2023-01-29T17:36:16.491Z,101233.78
2023-01-29T17:38:43.670Z,101224.06
2023-01-29T17:41:20.138Z,101224.44
2023-01-29T17:43:47.212Z,101226.13
2023-01-29T17:46:16.633Z,101222.94
2023-01-29T17:48:44.381Z,101222.56
2023-01-29T17:51:17.129Z,101220.06
2023-01-29T17:53:46.627Z,101220.28
2023-01-29T17:56:17.277Z,101218.09
2023-01-29T17:58:47.154Z,101217.69
2023-01-29T18:01:14.144Z,101226.38
2023-01-29T18:03:42.001Z,101226.66
2023-01-29T18:06:12.831Z,101227.06
2023-01-29T18:08:40.302Z,101222.28
2023-01-29T18:11:07.293Z,101224.94
2023-01-29T18:13:36.663Z,101218.22
2023-01-29T18:16:04.691Z,101212.38
2023-01-29T18:18:31.744Z,101207.91
2023-01-29T18:20:58.680Z,101209.19
2023-01-29T18:23:29.957Z,101208.19
2023-01-29T18:25:58.883Z,101201.06
2023-01-29T18:28:26.802Z,101204.28
2023-01-29T18:30:54.832Z,101210.63
2023-01-29T18:33:22.745Z,101208.28
2023-01-29T18:35:50.545Z,101204.56
2023-01-29T18:38:19.421Z,101192.06
2023-01-29T18:40:48.941Z,101202.41
2023-01-29T18:43:16.271Z,101198.19
2023-01-29T18:45:44.116Z,101199.47
2023-01-29T18:48:12.979Z,101203.03
2023-01-29T18:50:40.900Z,101188.56
2023-01-29T18:53:10.579Z,101185.16
2023-01-29T18:55:38.630Z,101188.38
2023-01-29T18:58:27.339Z,101190.06
2023-01-29T19:00:59.111Z,101196.25
2023-01-29T19:03:27.244Z,101184.06
2023-01-29T19:05:54.146Z,101182.94
2023-01-29T19:08:24.153Z,101178.84
2023-01-29T19:10:51.878Z,101181.78
2023-01-29T19:13:18.752Z,101183.31
2023-01-29T19:15:48.280Z,101183.38
2023-01-29T19:18:16.281Z,101171.97
2023-01-29T19:20:44.264Z,101170.44
2023-01-29T19:23:12.391Z,101174.88
2023-01-29T19:25:40.432Z,101175.91
2023-01-29T19:28:09.033Z,101179.38
2023-01-29T19:30:36.228Z,101187.88
2023-01-29T19:33:03.390Z,101183.06
2023-01-29T19:35:30.484Z,101178.22
2023-01-29T19:37:57.710Z,101176.31
2023-01-29T19:40:25.014Z,101195.44
2023-01-29T19:42:59.265Z,101193.09
2023-01-29T19:45:49.225Z,101184.34
2023-01-29T19:48:17.771Z,101189.75
2023-01-29T19:50:51.355Z,101180.56
2023-01-29T19:53:18.496Z,101184.75
2023-01-29T19:55:47.419Z,101188.53
2023-01-29T19:58:14.472Z,101179.72
2023-01-29T20:00:43.387Z,101178.59
2023-01-29T20:03:12.068Z,101176.03
2023-01-29T20:05:40.712Z,101168.75
2023-01-29T20:08:07.672Z,101174.59
2023-01-29T20:10:35.523Z,101179.38
2023-01-29T20:13:02.661Z,101178.53
2023-01-29T20:15:30.517Z,101181.44
2023-01-29T20:17:59.081Z,101168.84
2023-01-29T20:20:29.859Z,101175.75
2023-01-29T20:23:01.554Z,101185.44
2023-01-29T20:25:30.696Z,101183.88
2023-01-29T20:27:57.593Z,101180.19
2023-01-29T20:30:25.017Z,101171.97
2023-01-29T20:32:52.143Z,101184.06
2023-01-29T20:35:19.107Z,101186.72
2023-01-29T20:37:45.970Z,101179.34
2023-01-29T20:40:15.678Z,101175.31
2023-01-29T20:42:44.075Z,101174.44
2023-01-29T20:45:12.362Z,101174.75
2023-01-29T20:47:40.138Z,101167.72
2023-01-29T20:50:11.586Z,101169.22
2023-01-29T20:52:42.581Z,101166.28
2023-01-29T20:55:12.476Z,101170.09
2023-01-29T20:57:40.727Z,101171.50
2023-01-29T21:00:09.178Z,101167.19
2023-01-29T21:02:36.034Z,101161.91
2023-01-29T21:05:03.049Z,101164.25
2023-01-29T21:07:29.973Z,101155.59
2023-01-29T21:09:57.856Z,101166.59
2023-01-29T21:12:24.700Z,101159.31
2023-01-29T21:14:51.768Z,101155.44
2023-01-29T21:17:19.526Z,101154.84
2023-01-29T21:19:48.072Z,101154.78
2023-01-29T21:22:16.694Z,101150.19
2023-01-29T21:24:44.660Z,101151.69
2023-01-29T21:27:12.507Z,101155.84
2023-01-29T21:29:40.470Z,101155.66
2023-01-29T21:32:09.354Z,101155.63
2023-01-29T21:34:37.666Z,101152.97
2023-01-29T21:37:05.776Z,101154.97
2023-01-29T21:39:33.787Z,101156.84
2023-01-29T21:42:19.431Z,101155.72
2023-01-29T21:44:47.457Z,101152.09
2023-01-29T21:47:15.302Z,101145.09
2023-01-29T21:49:44.475Z,101150.41
2023-01-29T21:52:13.486Z,101149.16
2023-01-29T21:54:45.715Z,101146.44
2023-01-29T21:57:15.880Z,101144.22
2023-01-29T21:59:47.190Z,101139.34
2023-01-29T22:02:19.838Z,101138.44
2023-01-29T22:04:47.808Z,101139.66
2023-01-29T22:07:16.136Z,101138.13
2023-01-29T22:09:44.303Z,101136.69
2023-01-29T22:12:11.396Z,101130.22
2023-01-29T22:14:38.442Z,101131.63
2023-01-29T22:17:06.491Z,101129.59
2023-01-29T22:19:34.995Z,101131.28
2023-01-29T22:22:03.266Z,101123.75
2023-01-29T22:24:31.330Z,101129.31
2023-01-29T22:26:59.141Z,101130.34
2023-01-29T22:29:26.878Z,101130.16
2023-01-29T22:31:56.847Z,101132.44
2023-01-29T22:34:24.829Z,101133.03
2023-01-29T22:36:51.756Z,101139.59
2023-01-29T22:39:19.926Z,101140.56
2023-01-29T22:41:49.769Z,101142.53
2023-01-29T22:44:17.667Z,101135.00
2023-01-29T22:46:45.932Z,101134.69
2023-01-29T22:49:14.726Z,101134.06
2023-01-29T22:51:42.920Z,101129.44
2023-01-29T22:54:11.379Z,101121.16
2023-01-29T22:56:41.095Z,101112.53
2023-01-29T22:59:10.333Z,101114.31
2023-01-29T23:01:38.490Z,101116.56
2023-01-29T23:04:08.390Z,101110.97
2023-01-29T23:06:36.386Z,101119.84
2023-01-29T23:09:04.288Z,101117.38
2023-01-29T23:11:32.069Z,101115.34
2023-01-29T23:13:59.113Z,101114.44
2023-01-29T23:16:28.457Z,101106.25
2023-01-29T23:18:57.093Z,101102.81
2023-01-29T23:21:25.520Z,101103.31
2023-01-29T23:23:58.453Z,101107.16
2023-01-29T23:26:46.339Z,101096.19
2023-01-29T23:29:15.063Z,101100.66
2023-01-29T23:31:42.052Z,101092.25
2023-01-29T23:34:11.627Z,101085.66
2023-01-29T23:36:42.081Z,101087.78
2023-01-29T23:39:10.834Z,101076.81
2023-01-29T23:41:40.342Z,101084.34
2023-01-29T23:44:09.968Z,101079.09
2023-01-29T23:46:40.090Z,101071.56
2023-01-29T23:49:08.724Z,101071.94
2023-01-29T23:51:38.239Z,101070.41
2023-01-29T23:54:05.727Z,101071.31
2023-01-29T23:56:32.594Z,101066.88
2023-01-29T23:59:02.165Z,101051.91
